Star Princess — ZCDD6 — position and weather

sailwx.info

Track history (hours):
 
Tides and Currents Weather Stations Pressure Air Temp Water Temp Dewpoint Dewpoint Depression Visibility Wind Speed Wind Dir Waves Ship Positions

Star Princess

Operator: Princess Cruises

Last reported at 2014-Oct-01 23:34 UTC. Time now 2014-Oct-02 00:19 UTC.
Position N 37°49' W 122°24'.

Length 289.6 m; beam 36 m; draft 8.4 m.

Type: Ship. MMSI: 310361000.

Date/timePositionNaut miles runAvg speedWind from/ knotsBaromVisibWave heightAir tempDewpointWater temp
2014-Oct-01 23:34N 37°49' W 122°24'0 0.4
2014-Oct-01 22:25N 37°48' W 122°24'0 0.0
2014-Oct-01 21:33N 37°48' W 122°24'0 0.0
2014-Oct-01 20:33N 37°48' W 122°24'0 0.0
2014-Oct-01 19:32N 37°48' W 122°24'0 0.0
2014-Oct-01 18:32N 37°48' W 122°24'0 0.0
2014-Oct-01 17:31N 37°48' W 122°24'0 0.0
2014-Oct-01 16:31N 37°48' W 122°24'0 0.0
2014-Oct-01 15:31N 37°48' W 122°24'0 0.0
2014-Oct-01 14:33N 37°48' W 122°24'0 0.0
2014-Oct-01 13:33N 37°48' W 122°24'2 2.3
2014-Oct-01 12:33N 37°49' W 122°27'1313.4
2014-Oct-01 11:33N 37°45' W 122°43'1515.4
2014-Oct-01 10:34N 37°53' W 122°60'1918.8
2014-Oct-01 09:34N 38°04' W 123°18'1818.0
2014-Oct-01 08:33N 38°11' W 123°40'1817.9
2014-Oct-01 07:33N 38°24' W 123°55'1918.7
2014-Oct-01 06:33N 38°39' W 124°10'55920.3
2014-Sep-30 03:03N 47°56' W 125°19'1120.7
2014-Sep-30 02:33N 48°06' W 125°15'2020.4
2014-Sep-30 01:33N 48°25' W 125°06'1818.3
2014-Sep-30 00:34N 48°29' W 124°40'2019.8
2014-Sep-29 23:34N 48°22' W 124°12'2019.6
2014-Sep-29 22:33N 48°16' W 123°44'1414.5
2014-Sep-29 21:33N 48°23' W 123°25'2 2.0
2014-Sep-29 20:30N 48°25' W 123°24'0 0.0
2014-Sep-29 19:30N 48°25' W 123°24'0 0.0
2014-Sep-29 18:32N 48°25' W 123°24'0 0.0
2014-Sep-29 17:32N 48°25' W 123°24'0 0.0
2014-Sep-29 16:32N 48°25' W 123°24'0 0.0
2014-Sep-29 15:31N 48°25' W 123°24'0 0.0
2014-Sep-29 14:31N 48°25' W 123°24'0 0.0
2014-Sep-29 13:33N 48°25' W 123°24'4 4.3
2014-Sep-29 12:33N 48°21' W 123°24'1110.9
2014-Sep-29 11:33N 48°14' W 123°37'1716.6
2014-Sep-29 10:33N 48°16' W 124°02'1919.4
2014-Sep-29 09:33N 48°23' W 124°28'1919.3
2014-Sep-29 08:33N 48°29' W 124°57'2019.5
2014-Sep-29 07:33N 48°33' W 125°25'2019.8
2014-Sep-29 06:33N 48°44' W 125°50'2019.9
2014-Sep-29 05:33N 48°56' W 126°15'2120.6
2014-Sep-29 04:33N 49°08' W 126°40'2120.9
2014-Sep-29 03:33N 49°21' W 127°05'2544.5
2014-Sep-29 03:00N 49°36' W 127°36'   170 / 101022.5 5.4 1.016.015.115.0
2014-Sep-23 18:00N 49°06' W 129°06'30920.6 170 / 21999.010.8 1.518.516.017.0
2014-Sep-23 03:00N 44°06' W 127°18'22921.4 170 / 191009.3 5.4 1.020.016.719.0
2014-Sep-22 16:15N 40°34' W 125°18'1521.6
2014-Sep-22 15:33N 40°21' W 125°10'8521.2
2014-Sep-22 11:33N 39°02' W 124°27'2221.8
2014-Sep-22 10:33N 38°42' W 124°16'2121.4
2014-Sep-22 09:33N 38°27' W 123°57'2020.1
2014-Sep-22 08:33N 38°13' W 123°39'1818.0
2014-Sep-22 07:33N 38°06' W 123°18'1919.1
2014-Sep-22 06:33N 37°54' W 122°59'1716.9
2014-Sep-22 05:34N 37°46' W 122°40'1212.0
2014-Sep-22 04:33N 37°49' W 122°26'2 1.5
2014-Sep-22 03:32N 37°48' W 122°24'0 0.0
2014-Sep-22 02:31N 37°48' W 122°24'0 0.0
2014-Sep-22 01:31N 37°48' W 122°24'0 0.0
2014-Sep-22 00:33N 37°48' W 122°24'  
Track history (hours):
 
Tides and Currents Weather Stations Pressure Air Temp Water Temp Dewpoint Dewpoint Depression Visibility Wind Speed Wind Dir Waves Ship Positions

Star Princess

Operator: Princess Cruises

Last reported at 2014-Oct-01 23:34 UTC. Time now 2014-Oct-02 00:19 UTC.
Position N 37°49' W 122°24'.

Length 289.6 m; beam 36 m; draft 8.4 m.

Type: Ship. MMSI: 310361000.

Date/timePositionNaut miles runAvg speedWind from/ knotsBaromVisibWave heightAir tempDewpointWater temp
2014-Oct-01 23:34N 37°49' W 122°24'0 0.4
2014-Oct-01 22:25N 37°48' W 122°24'0 0.0
2014-Oct-01 21:33N 37°48' W 122°24'0 0.0
2014-Oct-01 20:33N 37°48' W 122°24'0 0.0
2014-Oct-01 19:32N 37°48' W 122°24'0 0.0
2014-Oct-01 18:32N 37°48' W 122°24'0 0.0
2014-Oct-01 17:31N 37°48' W 122°24'0 0.0
2014-Oct-01 16:31N 37°48' W 122°24'0 0.0
2014-Oct-01 15:31N 37°48' W 122°24'0 0.0
2014-Oct-01 14:33N 37°48' W 122°24'0 0.0
2014-Oct-01 13:33N 37°48' W 122°24'2 2.3
2014-Oct-01 12:33N 37°49' W 122°27'1313.4
2014-Oct-01 11:33N 37°45' W 122°43'1515.4
2014-Oct-01 10:34N 37°53' W 122°60'1918.8
2014-Oct-01 09:34N 38°04' W 123°18'1818.0
2014-Oct-01 08:33N 38°11' W 123°40'1817.9
2014-Oct-01 07:33N 38°24' W 123°55'1918.7
2014-Oct-01 06:33N 38°39' W 124°10'55920.3
2014-Sep-30 03:03N 47°56' W 125°19'1120.7
2014-Sep-30 02:33N 48°06' W 125°15'2020.4
2014-Sep-30 01:33N 48°25' W 125°06'1818.3
2014-Sep-30 00:34N 48°29' W 124°40'2019.8
2014-Sep-29 23:34N 48°22' W 124°12'2019.6
2014-Sep-29 22:33N 48°16' W 123°44'1414.5
2014-Sep-29 21:33N 48°23' W 123°25'2 2.0
2014-Sep-29 20:30N 48°25' W 123°24'0 0.0
2014-Sep-29 19:30N 48°25' W 123°24'0 0.0
2014-Sep-29 18:32N 48°25' W 123°24'0 0.0
2014-Sep-29 17:32N 48°25' W 123°24'0 0.0
2014-Sep-29 16:32N 48°25' W 123°24'0 0.0
2014-Sep-29 15:31N 48°25' W 123°24'0 0.0
2014-Sep-29 14:31N 48°25' W 123°24'0 0.0
2014-Sep-29 13:33N 48°25' W 123°24'4 4.3
2014-Sep-29 12:33N 48°21' W 123°24'1110.9
2014-Sep-29 11:33N 48°14' W 123°37'1716.6
2014-Sep-29 10:33N 48°16' W 124°02'1919.4
2014-Sep-29 09:33N 48°23' W 124°28'1919.3
2014-Sep-29 08:33N 48°29' W 124°57'2019.5
2014-Sep-29 07:33N 48°33' W 125°25'2019.8
2014-Sep-29 06:33N 48°44' W 125°50'2019.9
2014-Sep-29 05:33N 48°56' W 126°15'2120.6
2014-Sep-29 04:33N 49°08' W 126°40'2120.9
2014-Sep-29 03:33N 49°21' W 127°05'2544.5
2014-Sep-29 03:00N 49°36' W 127°36'   170 / 101022.5 5.4 1.016.015.115.0
2014-Sep-23 18:00N 49°06' W 129°06'30920.6 170 / 21999.010.8 1.518.516.017.0
2014-Sep-23 03:00N 44°06' W 127°18'22921.4 170 / 191009.3 5.4 1.020.016.719.0
2014-Sep-22 16:15N 40°34' W 125°18'1521.6
2014-Sep-22 15:33N 40°21' W 125°10'8521.2
2014-Sep-22 11:33N 39°02' W 124°27'2221.8
2014-Sep-22 10:33N 38°42' W 124°16'2121.4
2014-Sep-22 09:33N 38°27' W 123°57'2020.1
2014-Sep-22 08:33N 38°13' W 123°39'1818.0
2014-Sep-22 07:33N 38°06' W 123°18'1919.1
2014-Sep-22 06:33N 37°54' W 122°59'1716.9
2014-Sep-22 05:34N 37°46' W 122°40'1212.0
2014-Sep-22 04:33N 37°49' W 122°26'2 1.5
2014-Sep-22 03:32N 37°48' W 122°24'0 0.0
2014-Sep-22 02:31N 37°48' W 122°24'0 0.0
2014-Sep-22 01:31N 37°48' W 122°24'0 0.0
2014-Sep-22 00:33N 37°48' W 122°24'  

Dump ship's entire track history